ENKB/KSU METAR and TAF weather

Enter ICAO airport designator
Station Type Date Time Source
ENKB METAR 2022/06/29 00:20 UTC NOAA

ENKB 290020Z AUTO 09005KT 9999 BKN051/// OVC074/// 12/11 Q1020 RMK WIND 745FT 13008KT


Station Type Date Time Source
ENKB Decoded METAR 2022/06/29 00:20 UTC NOAA

Kristiansund / Kvernberget, Norway (ENKB) 63-07N 007-50E 62M
Jun 28, 2022 - 08:20 PM EDT / 2022.06.29 0020 UTC
Wind: from the E (090 degrees) at 6 MPH (5 KT):0
Visibility: greater than 7 mile(s):0
Sky conditions: overcast
Temperature: 53 F (12 C)
Dew Point: 51 F (11 C)
Relative Humidity: 93%
Pressure (altimeter): 30.12 in. Hg (1020 hPa)
ob: ENKB 290020Z AUTO 09005KT 9999 BKN051/// OVC074/// 12/11 Q1020 RMK WIND 745FT 13008KT
cycle: 0

Station Type Date Time Source
ENKB TAF 2010/02/05 07:50 UTC NOAA

METAR ENKB 050750Z 15011KT 110V200 9999 SCT055 BKN070 03/M05 Q1007

Example: see airport list